Airfield :
LOGIN :

Register | Disclaimer

   EN    FR    IT 

 










Legend :    VFR   Marginal VFR   IFR   Intensive IFR   Very Intensive IFR
Visi :
Ceiling :
>= 8 km
>= 3000ft
5 to 8 km
1000 to 3000 ft
1500m to 5 km
500 to 1000 ft
800 to 1500m
200 to 500 ft
< 800m
< 200 ft
Symbols :   Thunderstorms  Fog  Heavy snow  Heavy precipitations  Wind > 20 kt
SIGMETs :     Misc.  Thunderstorms  Icing  Turbulence  Mountain Waves  Volcanic Ashes






- Airport Elevation : 218 ft
- IATA code : LBG


LFPB - Paris / Le Bourget

CURRENT METAR :
  • 310130Z AUTO 16005KT 9999 OVC037 14/11 Q1024 TEMPO 4000 BR

EXPIRED METARs :
  • 310100Z AUTO 16005KT 9999 OVC036 14/10 Q1023 NOSIG
  • 310030Z AUTO 15005KT 9999 OVC035 14/11 Q1024 NOSIG
  • 310000Z AUTO 16005KT 9999 OVC035 14/11 Q1023 NOSIG
  • 302330Z AUTO 15006KT 9999 OVC036 14/11 Q1024 NOSIG
  • 302300Z AUTO 15006KT 9999 OVC035 14/11 Q1024 NOSIG

TAF TAF LFPB
Valid from the 31 at 00:00 until the 01 at 00:00 UTC


302300Z 3100/3124 17006KT 9999 BKN035
PROB40
TEMPO 3103/3108 4000 BR
PROB30
TEMPO 3105/3107 0900 FG VV///
BECMG 3108/3110 CAVOK
BECMG 3114/3116 21015G25KT
TEMPO 3116/3124 4000 RA
ATIS : +33 1 48 62 43 92



MET'MAP, your aeronautical weather chart ! - Copyright ORBIFLY December 2007 - Disclaimer

ORBIFLY MET'MAP TEAM :

Programming & Development : Alexandra Zaïnal
Concept & original design : Baudouin d'Aumeries
Assistance for programming : Marc-Olivier Méhu
Technical & hardware support : Manuel Goepfert

Contact : metmap@orbifly.com




SOURCES & CREDITS :

   NOAA